Time;durP1;ratioP1;P1;durP2;ratioP2;P2;SDS_P1;SDS_P2;PMS_P1;PMS_P2;Temp;Humidity;BMP_temperature;BMP_pressure;BME280_temperature;BME280_humidity;BME280_pressure;Samples;Min_cycle;Max_cycle;Signal;HPM_P1;HPM_P2
2023/09/01 00:01:45;;;;;;;0.10;0.10;;;;;;;11.92;100.00;96276.31;4839693;29;20049;-81
2023/09/01 00:04:52;;;;;;;0.10;0.10;;;;;;;11.89;100.00;96272.25;4828047;29;20495;-81
2023/09/01 00:07:38;;;;;;;0.10;0.10;;;;;;;11.88;100.00;96278.69;4840471;29;20612;-81
2023/09/01 00:10:24;;;;;;;0.10;0.10;;;;;;;11.88;100.00;96276.00;4840558;29;20052;-81
2023/09/01 00:13:09;;;;;;;0.10;0.10;;;;;;;11.88;100.00;96262.59;4839688;29;20050;-80
2023/09/01 00:15:55;;;;;;;0.10;0.10;;;;;;;11.88;100.00;96264.47;4839523;29;20136;-80
2023/09/01 00:18:41;;;;;;;0.10;0.10;;;;;;;11.85;100.00;96265.81;4841186;29;20041;-80
2023/09/01 00:21:27;;;;;;;0.10;0.10;;;;;;;11.82;100.00;96246.75;4840683;29;20076;-81
2023/09/01 00:24:13;;;;;;;0.10;0.10;;;;;;;11.92;100.00;96258.34;4837586;29;20042;-81
2023/09/01 00:27:00;;;;;;;0.20;0.20;;;;;;;11.89;100.00;96261.53;4840154;29;20057;-81
2023/09/01 00:29:46;;;;;;;0.10;0.10;;;;;;;11.88;100.00;96254.56;4839212;29;20539;-81
2023/09/01 00:32:32;;;;;;;0.10;0.10;;;;;;;11.77;100.00;96252.06;4838604;29;20088;-80
2023/09/01 00:35:17;;;;;;;0.10;0.10;;;;;;;11.78;100.00;96248.31;4839392;29;20164;-80
2023/09/01 00:38:03;;;;;;;0.10;0.10;;;;;;;11.73;100.00;96257.94;4840050;29;20079;-80
2023/09/01 00:40:49;;;;;;;0.10;0.10;;;;;;;11.73;100.00;96254.44;4840645;29;20044;-80
2023/09/01 00:43:35;;;;;;;0.10;0.10;;;;;;;11.78;100.00;96265.22;4840429;29;20056;-80
2023/09/01 00:46:21;;;;;;;0.10;0.10;;;;;;;11.89;100.00;96264.22;4840808;29;20054;-80
2023/09/01 00:49:06;;;;;;;0.10;0.10;;;;;;;11.80;100.00;96254.22;4840327;29;20785;-80
2023/09/01 00:51:52;;;;;;;0.10;0.10;;;;;;;11.67;100.00;96255.47;4838781;29;20041;-80
2023/09/01 00:54:38;;;;;;;0.10;0.10;;;;;;;11.62;100.00;96252.81;4838609;29;20610;-79
2023/09/01 00:57:24;;;;;;;0.10;0.10;;;;;;;11.61;100.00;96246.63;4839606;29;21018;-79
2023/09/01 01:00:10;;;;;;;0.10;0.10;;;;;;;11.56;100.00;96248.47;4839836;29;20124;-79
2023/09/01 01:02:56;;;;;;;0.10;0.10;;;;;;;11.55;100.00;96257.56;4837845;29;20133;-79
2023/09/01 01:06:09;;;;;;;0.10;0.10;;;;;;;11.51;100.00;96261.81;4839953;29;20587;-80
2023/09/01 01:09:10;;;;;;;0.10;0.10;;;;;;;11.53;100.00;96263.19;4843524;29;20053;-79
2023/09/01 01:12:28;;;;;;;0.10;0.10;;;;;;;11.57;100.00;96261.59;4843154;29;20129;-80
2023/09/01 01:15:18;;;;;;;0.10;0.10;;;;;;;11.58;100.00;96259.72;4843186;29;20045;-79
2023/09/01 01:18:10;;;;;;;0.13;0.13;;;;;;;11.59;100.00;96251.44;4843943;29;20156;-80
2023/09/01 01:21:04;;;;;;;;;;;;;;;11.62;100.00;96248.25;4842353;29;20050;-80
2023/09/01 01:23:52;;;;;;;0.20;0.20;;;;;;;11.55;100.00;96253.03;4840631;29;19927;-80
2023/09/01 01:26:38;;;;;;;0.10;0.10;;;;;;;11.57;100.00;96244.72;4829316;29;20049;-79
2023/09/01 01:29:23;;;;;;;0.10;0.10;;;;;;;11.64;100.00;96246.09;4844187;29;20041;-79
2023/09/01 01:32:09;;;;;;;0.10;0.10;;;;;;;11.60;100.00;96244.22;4841634;29;20053;-79
2023/09/01 01:35:11;;;;;;;0.10;0.10;;;;;;;11.58;100.00;96247.13;4843800;29;20120;-79
2023/09/01 01:38:18;;;;;;;0.10;0.10;;;;;;;11.58;100.00;96240.97;4840408;29;20045;-79
2023/09/01 01:41:14;;;;;;;0.10;0.10;;;;;;;11.48;100.00;96238.25;4829788;29;20109;-79
2023/09/01 01:44:04;;;;;;;0.10;0.10;;;;;;;11.49;100.00;96237.97;4831492;29;20053;-79
2023/09/01 01:46:51;;;;;;;0.15;0.15;;;;;;;11.56;100.00;96248.47;4840218;29;20122;-79
2023/09/01 01:49:37;;;;;;;0.17;0.17;;;;;;;11.49;100.00;96250.56;4842951;29;20713;-80
2023/09/01 01:52:23;;;;;;;0.10;0.10;;;;;;;11.59;100.00;96253.31;4843231;29;20045;-79
2023/09/01 01:55:09;;;;;;;0.10;0.10;;;;;;;11.60;100.00;96244.22;4841753;29;20487;-79
2023/09/01 01:57:55;;;;;;;0.10;0.10;;;;;;;11.52;100.00;96242.84;4843336;29;20132;-79
2023/09/01 02:00:41;;;;;;;0.20;0.13;;;;;;;11.53;100.00;96246.31;4839685;29;20056;-79
2023/09/01 02:03:27;;;;;;;0.10;0.10;;;;;;;11.55;100.00;96244.19;4841829;29;20490;-80
2023/09/01 02:06:13;;;;;;;0.10;0.10;;;;;;;11.54;100.00;96239.88;4833608;29;20105;-80
2023/09/01 02:08:58;;;;;;;0.10;0.10;;;;;;;11.46;100.00;96243.06;4839761;29;20088;-79
2023/09/01 02:11:46;;;;;;;0.10;0.10;;;;;;;11.51;100.00;96241.19;4840627;29;20254;-79
2023/09/01 02:14:36;;;;;;;0.10;0.10;;;;;;;11.58;100.00;96240.97;4841623;29;20050;-80
2023/09/01 02:17:22;;;;;;;0.10;0.10;;;;;;;11.56;100.00;96243.13;4828417;29;21012;-81
2023/09/01 02:20:20;;;;;;;0.10;0.10;;;;;;;11.60;100.00;96249.56;4843389;29;20914;-81
2023/09/01 02:23:06;;;;;;;0.10;0.10;;;;;;;11.54;100.00;96240.69;4835922;29;20060;-81
2023/09/01 02:25:52;;;;;;;0.10;0.10;;;;;;;11.62;100.00;96244.75;4840773;29;20041;-81
2023/09/01 02:28:38;;;;;;;0.10;0.10;;;;;;;11.61;100.00;96243.16;4841533;29;20049;-81
2023/09/01 02:31:27;;;;;;;0.10;0.10;;;;;;;11.70;100.00;96249.63;4842744;29;20046;-81
2023/09/01 02:34:12;;;;;;;0.10;0.10;;;;;;;11.66;100.00;96253.88;4839903;29;20140;-82
2023/09/01 02:36:58;;;;;;;0.10;0.10;;;;;;;11.61;100.00;96243.16;4841006;29;20221;-81
2023/09/01 02:39:47;;;;;;;0.10;0.10;;;;;;;11.69;100.00;96248.00;4842409;29;20044;-81
2023/09/01 02:42:33;;;;;;;0.10;0.10;;;;;;;11.68;100.00;96246.41;4828908;29;20110;-81
2023/09/01 02:45:20;;;;;;;0.10;0.10;;;;;;;11.67;100.00;96242.91;4839716;29;20052;-81
2023/09/01 02:48:05;;;;;;;0.10;0.10;;;;;;;11.76;100.00;96237.88;4840195;29;20073;-81
2023/09/01 02:50:51;;;;;;;0.10;0.10;;;;;;;11.77;100.00;96239.47;4841226;29;20052;-81
2023/09/01 02:53:37;;;;;;;0.10;0.10;;;;;;;11.70;100.00;96246.94;4837621;29;20069;-80
2023/09/01 02:56:23;;;;;;;0.10;0.10;;;;;;;11.66;100.00;96241.28;4829505;29;20049;-81
2023/09/01 02:59:09;;;;;;;0.10;0.10;;;;;;;11.68;100.00;96247.22;4841728;29;20156;-80
2023/09/01 03:01:55;;;;;;;0.10;0.10;;;;;;;11.68;100.00;96241.03;4840132;29;20590;-81
2023/09/01 03:04:41;;;;;;;0.10;0.10;;;;;;;11.71;100.00;96243.19;4840345;29;20041;-81
2023/09/01 03:07:27;;;;;;;0.10;0.10;;;;;;;11.63;100.00;96233.78;4841532;29;20050;-81
2023/09/01 03:10:13;;;;;;;0.10;0.10;;;;;;;11.71;100.00;96240.50;4828927;29;20125;-81
2023/09/01 03:13:01;;;;;;;0.00;0.00;;;;;;;11.73;100.00;96239.19;4828306;29;20049;-81
2023/09/01 03:15:47;;;;;;;0.10;0.10;;;;;;;11.71;100.00;96241.31;4839863;29;20162;-81
2023/09/01 03:18:33;;;;;;;0.10;0.10;;;;;;;11.73;100.00;96246.41;4841464;29;20107;-81
2023/09/01 03:21:19;;;;;;;0.10;0.10;;;;;;;11.75;100.00;96241.63;4827520;29;20132;-81
2023/09/01 03:24:06;;;;;;;0.10;0.10;;;;;;;11.88;100.00;96259.13;4840835;29;20137;-82
2023/09/01 03:26:52;;;;;;;0.20;0.20;;;;;;;11.95;100.00;96252.44;4838237;29;20053;-81
2023/09/01 03:29:38;;;;;;;0.10;0.10;;;;;;;11.91;100.00;96262.09;4840799;29;20057;-81
2023/09/01 03:32:24;;;;;;;0.20;0.20;;;;;;;11.85;100.00;96257.78;4839711;29;20052;-81
2023/09/01 03:35:10;;;;;;;0.20;0.20;;;;;;;11.92;100.00;96262.91;4841255;29;20042;-81
2023/09/01 03:37:56;;;;;;;0.17;0.17;;;;;;;11.80;100.00;96254.22;4838383;29;20128;-81
2023/09/01 03:40:42;;;;;;;0.10;0.10;;;;;;;11.87;100.00;96255.63;4839344;29;20084;-81
2023/09/01 03:43:28;;;;;;;0.10;0.10;;;;;;;11.88;100.00;96249.19;4840620;29;20052;-81
2023/09/01 03:46:13;;;;;;;0.10;0.10;;;;;;;11.91;100.00;96237.97;4840076;29;20073;-81
2023/09/01 03:48:59;;;;;;;0.10;0.10;;;;;;;11.86;100.00;96237.94;4840937;29;20129;-81
2023/09/01 03:51:46;;;;;;;0.10;0.10;;;;;;;11.96;100.00;96237.16;4839470;29;20133;-81
2023/09/01 03:54:32;;;;;;;0.10;0.10;;;;;;;11.87;100.00;96228.81;4840589;29;21101;-81
2023/09/01 03:57:18;;;;;;;0.10;0.10;;;;;;;11.99;100.00;96221.38;4839745;29;20049;-81
2023/09/01 04:00:08;;;;;;;0.10;0.10;;;;;;;11.98;100.00;96225.13;4839180;29;20407;-81
2023/09/01 04:02:59;;;;;;;0.10;0.10;;;;;;;12.07;100.00;96227.31;4840059;29;20109;-81
2023/09/01 04:05:45;;;;;;;0.10;0.10;;;;;;;11.97;100.00;96226.16;4840751;29;20073;-82
2023/09/01 04:08:36;;;;;;;0.10;0.10;;;;;;;12.01;100.00;96233.72;4841007;29;20049;-81
2023/09/01 04:11:21;;;;;;;0.10;0.10;;;;;;;11.98;100.00;96240.38;4826209;29;20049;-82
2023/09/01 04:14:09;;;;;;;0.10;0.10;;;;;;;11.94;100.00;96240.13;4839403;29;20045;-81
2023/09/01 04:16:55;;;;;;;0.10;0.10;;;;;;;11.88;100.00;96237.66;4840807;29;20775;-81
2023/09/01 04:19:41;;;;;;;0.10;0.10;;;;;;;11.88;100.00;96235.78;4840181;29;20045;-81
2023/09/01 04:22:27;;;;;;;0.10;0.10;;;;;;;11.79;100.00;96240.00;4827581;29;20058;-81
2023/09/01 04:25:12;;;;;;;0.10;0.10;;;;;;;11.79;100.00;96231.97;4842218;29;20076;-81
2023/09/01 04:27:59;;;;;;;0.10;0.10;;;;;;;11.86;100.00;96235.25;4840909;29;20038;-81
2023/09/01 04:30:46;;;;;;;0.10;0.10;;;;;;;11.90;100.00;96238.22;4836331;29;20065;-82
2023/09/01 04:33:33;;;;;;;0.15;0.15;;;;;;;11.99;100.00;96242.03;4825936;29;20132;-81
2023/09/01 04:36:18;;;;;;;0.20;0.20;;;;;;;12.01;100.00;96245.25;4843181;29;20056;-81
2023/09/01 04:39:04;;;;;;;0.10;0.10;;;;;;;11.96;100.00;96243.34;4840129;29;20137;-81
2023/09/01 04:41:51;;;;;;;0.10;0.10;;;;;;;12.01;100.00;96247.91;4840139;29;20722;-81
2023/09/01 04:44:37;;;;;;;0.10;0.10;;;;;;;11.95;100.00;96241.72;4840530;29;20055;-81
2023/09/01 04:47:24;;;;;;;0.10;0.10;;;;;;;11.87;100.00;96250.28;4842295;29;20121;-80
2023/09/01 04:50:10;;;;;;;0.10;0.10;;;;;;;11.95;100.00;96252.44;4840416;29;20056;-81
2023/09/01 04:52:56;;;;;;;0.20;0.20;;;;;;;11.92;100.00;96254.84;4838822;29;20087;-81
2023/09/01 04:55:42;;;;;;;0.30;0.22;;;;;;;11.94;100.00;96253.53;4841388;29;20423;-81
2023/09/01 04:58:28;;;;;;;0.10;0.10;;;;;;;11.89;100.00;96250.00;4844060;29;20080;-80
2023/09/01 05:01:14;;;;;;;0.10;0.10;;;;;;;11.98;100.00;96251.94;4840852;29;20673;-81
2023/09/01 05:04:00;;;;;;;0.15;0.10;;;;;;;11.94;100.00;96245.47;4841527;29;20650;-81
2023/09/01 05:06:46;;;;;;;0.10;0.10;;;;;;;11.95;100.00;96257.00;4839084;29;20121;-81
2023/09/01 05:09:33;;;;;;;0.10;0.10;;;;;;;12.02;100.00;96257.56;4839695;29;21012;-81
2023/09/01 05:12:19;;;;;;;0.10;0.10;;;;;;;12.05;100.00;96248.19;4825702;29;20046;-81
2023/09/01 05:15:05;;;;;;;0.10;0.10;;;;;;;12.21;100.00;96255.22;4841586;29;20064;-82
2023/09/01 05:17:51;;;;;;;0.10;0.10;;;;;;;12.16;100.00;96255.22;4839914;29;20069;-82
2023/09/01 05:20:37;;;;;;;0.20;0.20;;;;;;;12.13;100.00;96263.78;4839236;29;20041;-81
2023/09/01 05:23:25;;;;;;;0.10;0.10;;;;;;;12.11;100.00;96264.03;4839735;29;20053;-81
2023/09/01 05:26:11;;;;;;;0.10;0.10;;;;;;;12.14;100.00;96260.84;4840882;29;20101;-81
2023/09/01 05:28:57;;;;;;;0.10;0.10;;;;;;;12.22;100.00;96265.72;4829966;29;20042;-81
2023/09/01 05:31:43;;;;;;;0.10;0.10;;;;;;;12.22;100.00;96270.28;4839345;29;20097;-81
2023/09/01 05:34:29;;;;;;;0.10;0.10;;;;;;;12.20;100.00;96262.47;4839089;29;20061;-81
2023/09/01 05:37:15;;;;;;;0.10;0.10;;;;;;;12.18;100.00;96264.59;4840195;29;20800;-81
2023/09/01 05:40:03;;;;;;;0.10;0.10;;;;;;;12.15;100.00;96259.78;4826980;29;20042;-80
2023/09/01 05:42:49;;;;;;;0.10;0.10;;;;;;;12.15;100.00;96256.28;4839168;29;20112;-81
2023/09/01 05:45:35;;;;;;;0.10;0.10;;;;;;;12.10;100.00;96259.75;4826582;29;20140;-81
2023/09/01 05:48:21;;;;;;;0.10;0.10;;;;;;;12.14;100.00;96252.81;4826015;29;20106;-81
2023/09/01 05:51:10;;;;;;;0.10;0.10;;;;;;;12.27;100.00;96265.72;4836280;29;20057;-81
2023/09/01 05:53:56;;;;;;;0.10;0.10;;;;;;;12.35;100.00;96274.31;4842618;29;20136;-81
2023/09/01 05:56:42;;;;;;;0.10;0.10;;;;;;;12.36;100.00;96262.50;4841957;29;20164;-82
2023/09/01 05:59:28;;;;;;;0.13;0.13;;;;;;;12.43;100.00;96266.56;4843682;29;20057;-82
2023/09/01 06:02:14;;;;;;;0.10;0.10;;;;;;;12.48;100.00;96263.09;4844075;29;20468;-81
2023/09/01 06:05:00;;;;;;;0.10;0.10;;;;;;;12.50;100.00;96260.94;4843357;29;20047;-81
2023/09/01 06:07:46;;;;;;;0.10;0.10;;;;;;;12.60;100.00;96255.59;4842429;29;20125;-81
2023/09/01 06:10:32;;;;;;;0.10;0.10;;;;;;;12.53;100.00;96261.22;4842274;29;20777;-81
2023/09/01 06:13:18;;;;;;;0.20;0.20;;;;;;;12.55;100.00;96269.00;4845384;29;20041;-81
2023/09/01 06:16:04;;;;;;;0.15;0.15;;;;;;;12.59;100.00;96267.41;4845044;29;20498;-81
2023/09/01 06:18:50;;;;;;;0.15;0.15;;;;;;;12.51;100.00;96274.09;4842581;29;20053;-82
2023/09/01 06:21:36;;;;;;;0.20;0.20;;;;;;;12.41;100.00;96262.53;4842753;29;20050;-81
2023/09/01 06:24:22;;;;;;;0.20;0.20;;;;;;;12.51;100.00;96268.72;4844028;29;20818;-82
2023/09/01 06:27:08;;;;;;;0.30;0.20;;;;;;;12.58;100.00;96281.09;4841153;29;20702;-81
2023/09/01 06:29:56;;;;;;;0.43;0.28;;;;;;;12.53;100.00;96280.03;4840954;29;20041;-81
2023/09/01 06:32:42;;;;;;;0.40;0.30;;;;;;;12.59;100.00;96293.44;4842635;29;20799;-81
2023/09/01 06:35:28;;;;;;;0.57;0.32;;;;;;;12.52;100.00;96289.13;4843774;29;21087;-81
2023/09/01 06:38:13;;;;;;;0.52;0.32;;;;;;;12.49;100.00;96288.84;4846659;29;20129;-81
2023/09/01 06:41:01;;;;;;;0.55;0.40;;;;;;;12.58;100.00;96276.53;4843807;29;20538;-81
2023/09/01 06:43:47;;;;;;;0.28;0.22;;;;;;;12.45;100.00;96272.50;4842967;29;20078;-81
2023/09/01 06:46:33;;;;;;;0.30;0.30;;;;;;;12.54;100.00;96275.47;4844234;29;20097;-81
2023/09/01 06:49:19;;;;;;;0.47;0.30;;;;;;;12.55;100.00;96277.88;4844765;29;20049;-82
2023/09/01 06:52:05;;;;;;;0.40;0.25;;;;;;;12.61;100.00;96276.00;4843760;29;20122;-81
2023/09/01 06:54:51;;;;;;;0.30;0.25;;;;;;;12.73;100.00;96278.44;4844035;29;21393;-81
2023/09/01 06:57:36;;;;;;;0.50;0.30;;;;;;;12.74;100.00;96286.22;4841522;29;20136;-81
2023/09/01 07:00:22;;;;;;;0.20;0.20;;;;;;;12.81;100.00;96284.09;4842676;29;20041;-81
2023/09/01 07:03:08;;;;;;;0.70;0.40;;;;;;;12.70;100.00;96285.16;4841391;29;20539;-81
2023/09/01 07:05:55;;;;;;;0.25;0.25;;;;;;;12.86;100.00;96296.72;4844290;29;20042;-81
2023/09/01 07:08:41;;;;;;;0.45;0.35;;;;;;;12.77;100.00;96303.69;4843715;29;20054;-81
2023/09/01 07:11:26;;;;;;;0.50;0.30;;;;;;;12.73;100.00;96308.78;4843813;29;20399;-82
2023/09/01 07:14:12;;;;;;;0.50;0.30;;;;;;;12.71;100.00;96305.56;4840857;29;20121;-82
2023/09/01 07:16:58;;;;;;;0.40;0.30;;;;;;;12.70;100.00;96285.16;4844138;29;20106;-81
2023/09/01 07:19:44;;;;;;;0.80;0.43;;;;;;;12.77;100.00;96277.66;4844085;29;20041;-82
2023/09/01 07:22:30;;;;;;;0.68;0.40;;;;;;;12.81;100.00;96281.41;4846656;29;20072;-82
2023/09/01 07:25:15;;;;;;;0.47;0.30;;;;;;;13.00;100.00;96284.38;4841847;29;20044;-82
2023/09/01 07:28:02;;;;;;;0.28;0.28;;;;;;;12.92;100.00;96271.50;4842544;29;20156;-81
2023/09/01 07:30:48;;;;;;;0.20;0.20;;;;;;;12.92;100.00;96286.78;4842288;29;20046;-82
2023/09/01 07:33:35;;;;;;;0.20;0.20;;;;;;;12.97;100.00;96290.28;4842788;29;20042;-82
2023/09/01 07:36:21;;;;;;;0.10;0.10;;;;;;;13.05;100.00;96284.38;4841239;29;20053;-82
2023/09/01 07:39:07;;;;;;;0.10;0.10;;;;;;;13.32;100.00;96286.84;4843787;29;20069;-81
2023/09/01 07:41:53;;;;;;;0.10;0.10;;;;;;;13.31;100.00;96282.53;4842080;29;20049;-81
2023/09/01 07:44:39;;;;;;;0.10;0.10;;;;;;;13.19;100.00;96284.66;4842637;29;20046;-81
2023/09/01 07:47:26;;;;;;;0.10;0.10;;;;;;;13.21;100.00;96284.41;4841647;29;20066;-81
2023/09/01 07:50:12;;;;;;;0.10;0.10;;;;;;;13.27;100.00;96283.34;4841086;29;20051;-81
2023/09/01 07:52:58;;;;;;;0.10;0.10;;;;;;;13.21;100.00;96287.09;4842025;29;20048;-82
2023/09/01 07:55:43;;;;;;;0.10;0.10;;;;;;;13.21;100.00;96293.28;4841858;29;20124;-81
2023/09/01 07:58:29;;;;;;;0.10;0.10;;;;;;;13.15;100.00;96302.41;4843272;29;20061;-81
2023/09/01 08:01:15;;;;;;;0.10;0.10;;;;;;;13.02;100.00;96314.47;4840961;29;20057;-80
2023/09/01 08:04:01;;;;;;;0.10;0.10;;;;;;;12.99;100.00;96312.28;4840422;29;21076;-81
2023/09/01 08:06:47;;;;;;;0.10;0.10;;;;;;;12.99;100.00;96312.28;4839370;29;20171;-81
2023/09/01 08:09:33;;;;;;;0.10;0.10;;;;;;;13.14;100.00;96318.75;4842550;29;20042;-80
2023/09/01 08:12:19;;;;;;;0.10;0.10;;;;;;;13.22;100.00;96320.94;4843298;29;20483;-81
2023/09/01 08:15:05;;;;;;;0.10;0.10;;;;;;;13.24;100.00;96316.13;4839026;29;20060;-81
2023/09/01 08:17:53;;;;;;;0.10;0.10;;;;;;;13.19;100.00;96316.09;4840188;29;20072;-81
2023/09/01 08:20:40;;;;;;;0.10;0.10;;;;;;;13.11;100.00;96317.44;4842695;29;20053;-81
2023/09/01 08:23:25;;;;;;;0.10;0.10;;;;;;;13.08;100.00;96324.16;4839967;29;20175;-81
2023/09/01 08:26:11;;;;;;;0.10;0.10;;;;;;;13.11;100.00;96328.97;4837818;29;20098;-81
2023/09/01 08:28:57;;;;;;;0.10;0.10;;;;;;;13.15;100.00;96333.81;4839187;29;20148;-81
2023/09/01 08:31:43;;;;;;;0.15;0.15;;;;;;;13.11;100.00;96328.16;4840508;29;20042;-82
2023/09/01 08:34:29;;;;;;;0.10;0.10;;;;;;;13.13;100.00;96325.22;4841114;29;20060;-82
2023/09/01 08:37:19;;;;;;;0.10;0.10;;;;;;;13.06;100.00;96320.91;4842357;29;20075;-81
2023/09/01 08:40:10;;;;;;;0.20;0.20;;;;;;;13.10;100.00;96332.75;4842393;29;20558;-81
2023/09/01 08:42:56;;;;;;;0.10;0.10;;;;;;;13.19;100.00;96332.22;4840439;29;20128;-81
2023/09/01 08:45:45;;;;;;;0.10;0.10;;;;;;;13.29;100.00;96335.72;4840957;29;20942;-81
2023/09/01 08:48:32;;;;;;;0.10;0.10;;;;;;;13.36;100.00;96325.50;4842212;29;20055;-81
2023/09/01 08:51:19;;;;;;;0.10;0.10;;;;;;;13.37;100.00;96339.75;4840722;29;20158;-81
2023/09/01 08:54:06;;;;;;;0.10;0.10;;;;;;;13.57;100.00;96331.69;4840968;29;20049;-81
2023/09/01 08:56:52;;;;;;;0.10;0.10;;;;;;;13.81;100.00;96325.75;4840355;29;20053;-81
2023/09/01 08:59:38;;;;;;;0.10;0.10;;;;;;;13.87;100.00;96324.66;4841106;29;20069;-81
2023/09/01 09:02:26;;;;;;;0.10;0.10;;;;;;;13.76;100.00;96333.81;4839964;29;20427;-78
2023/09/01 09:05:13;;;;;;;0.10;0.10;;;;;;;14.07;100.00;96321.09;4841129;29;20046;-80
2023/09/01 09:08:02;;;;;;;0.10;0.10;;;;;;;14.31;100.00;96318.59;4838697;29;20764;-80
2023/09/01 09:10:48;;;;;;;0.10;0.10;;;;;;;14.40;100.00;96320.47;4839199;29;20053;-80
2023/09/01 09:13:36;;;;;;;0.13;0.13;;;;;;;14.43;100.00;96327.19;4841446;29;20053;-81
2023/09/01 09:16:22;;;;;;;0.10;0.10;;;;;;;14.45;100.00;96330.41;4842051;29;20097;-81
2023/09/01 09:19:10;;;;;;;0.10;0.10;;;;;;;14.36;100.00;96334.75;4841380;29;20198;-81
2023/09/01 09:22:07;;;;;;;0.10;0.10;;;;;;;14.33;100.00;96338.81;4840733;29;20076;-82
2023/09/01 09:24:52;;;;;;;0.10;0.10;;;;;;;14.38;100.00;96338.75;4839847;29;20077;-81
2023/09/01 09:27:38;;;;;;;0.10;0.10;;;;;;;14.45;100.00;96346.53;4814461;29;20045;-81
2023/09/01 09:30:28;;;;;;;0.17;0.17;;;;;;;14.60;100.00;96333.06;4845253;29;20052;-81
2023/09/01 09:33:14;;;;;;;0.10;0.10;;;;;;;14.77;100.00;96336.19;4844075;29;20045;-81
2023/09/01 09:36:00;;;;;;;0.10;0.10;;;;;;;15.05;100.00;96329.28;4844484;29;20056;-81
2023/09/01 09:38:46;;;;;;;0.10;0.10;;;;;;;15.31;100.00;96319.13;4843557;29;20053;-82
2023/09/01 09:41:51;;;;;;;0.10;0.10;;;;;;;15.30;100.00;96319.41;4843412;29;20134;-81
2023/09/01 09:44:37;;;;;;;0.10;0.10;;;;;;;15.41;100.00;96328.22;4843908;29;20144;-81
2023/09/01 09:47:23;;;;;;;0.10;0.10;;;;;;;15.45;100.00;96326.56;4843837;29;21198;-81
2023/09/01 09:50:09;;;;;;;0.20;0.20;;;;;;;15.50;100.00;96315.75;4840330;29;20711;-81
2023/09/01 09:52:59;;;;;;;0.13;0.13;;;;;;;15.83;100.00;96314.13;4844149;29;20079;-81
2023/09/01 09:55:46;;;;;;;0.10;0.10;;;;;;;15.91;100.00;96312.69;4843306;29;20148;-81
2023/09/01 09:58:39;;;;;;;0.10;0.10;;;;;;;16.05;100.00;96305.53;4843089;29;20422;-80
2023/09/01 10:01:30;;;;;;;0.10;0.10;;;;;;;16.13;100.00;96313.81;4845997;29;20067;-80
2023/09/01 10:04:17;;;;;;;0.10;0.10;;;;;;;16.21;100.00;96306.97;4831927;29;20057;-81
2023/09/01 10:07:03;;;;;;;0.10;0.10;;;;;;;16.45;100.00;96301.56;4846309;29;20487;-81
2023/09/01 10:09:49;;;;;;;0.10;0.10;;;;;;;16.86;100.00;96291.03;4831052;29;20048;-81
2023/09/01 10:12:36;;;;;;;0.10;0.10;;;;;;;17.19;100.00;96286.47;4845690;29;20049;-80
2023/09/01 10:15:24;;;;;;;0.10;0.10;;;;;;;17.15;100.00;96284.66;4848296;29;20690;-81
2023/09/01 10:18:09;;;;;;;0.10;0.10;;;;;;;16.99;100.00;96276.78;4849174;29;20128;-81
2023/09/01 10:20:55;;;;;;;0.20;0.20;;;;;;;17.42;100.00;96275.81;4846646;29;20045;-81
2023/09/01 10:23:43;;;;;;;0.10;0.10;;;;;;;17.49;100.00;96282.47;4844734;29;20038;-82
2023/09/01 10:26:29;;;;;;;0.10;0.10;;;;;;;17.20;100.00;96284.59;4847790;29;20041;-82
2023/09/01 10:29:31;;;;;;;0.13;0.13;;;;;;;17.11;100.00;96280.94;4844676;29;20052;-81
2023/09/01 10:32:18;;;;;;;0.10;0.10;;;;;;;16.86;100.00;96277.50;4842177;29;20736;-81
2023/09/01 10:35:04;;;;;;;0.10;0.10;;;;;;;16.82;100.00;96271.09;4843910;29;20056;-81
2023/09/01 10:38:10;;;;;;;0.10;0.10;;;;;;;16.54;100.00;96289.00;4829975;29;20560;-80
2023/09/01 10:40:56;;;;;;;0.10;0.10;;;;;;;16.49;100.00;96285.56;4844428;29;20298;-80
2023/09/01 10:43:44;;;;;;;0.13;0.13;;;;;;;16.41;100.00;96290.50;4836830;29;20484;-81
2023/09/01 10:46:30;;;;;;;0.10;0.10;;;;;;;16.36;100.00;96282.50;4844868;29;20049;-81
2023/09/01 10:49:16;;;;;;;0.10;0.10;;;;;;;16.21;100.00;96301.56;4845631;29;20113;-81
2023/09/01 10:52:12;;;;;;;0.10;0.10;;;;;;;16.40;100.00;96294.31;4842385;29;20109;-81
2023/09/01 10:55:06;;;;;;;0.10;0.10;;;;;;;16.27;100.00;96284.22;4828725;29;20052;-81
2023/09/01 10:57:52;;;;;;;0.10;0.10;;;;;;;16.60;100.00;96277.03;4837308;29;20066;-80
2023/09/01 11:00:38;;;;;;;0.10;0.10;;;;;;;16.65;100.00;96289.66;4840110;29;20045;-81
2023/09/01 11:03:30;;;;;;;0.10;0.10;;;;;;;17.12;100.00;96267.13;4841260;29;20498;-81
2023/09/01 11:06:16;;;;;;;0.10;0.10;;;;;;;17.23;100.00;96270.47;4842407;29;20045;-81
2023/09/01 11:09:03;;;;;;;0.10;0.10;;;;;;;17.06;100.00;96275.63;4842574;29;20041;-81
2023/09/01 11:11:49;;;;;;;0.10;0.10;;;;;;;17.01;100.00;96272.97;4841764;29;20045;-81
2023/09/01 11:14:37;;;;;;;0.10;0.10;;;;;;;16.85;100.00;96273.22;4842407;29;20053;-81
2023/09/01 11:17:40;;;;;;;0.10;0.10;;;;;;;16.70;100.00;96278.81;4843479;29;20053;-81
2023/09/01 11:20:29;;;;;;;0.10;0.10;;;;;;;16.35;100.00;96280.88;4841787;29;20061;-81
2023/09/01 11:23:20;;;;;;;0.17;0.17;;;;;;;16.21;100.00;96282.69;4842466;29;20053;-80
2023/09/01 11:26:08;;;;;;;;;;;;;;;16.40;100.00;96288.91;4840597;29;20089;-80
2023/09/01 11:28:55;;;;;;;0.10;0.10;;;;;;;16.57;100.00;96274.91;4835634;29;19924;-80
2023/09/01 11:31:42;;;;;;;0.10;0.10;;;;;;;16.79;100.00;96268.16;4837500;29;20084;-81
2023/09/01 11:34:38;;;;;;;0.10;0.10;;;;;;;17.04;100.00;96267.78;4840818;29;20065;-80
2023/09/01 11:37:40;;;;;;;0.10;0.10;;;;;;;17.19;100.00;96272.94;4839948;29;20050;-81
2023/09/01 11:40:27;;;;;;;0.13;0.13;;;;;;;17.37;100.00;96268.63;4840791;29;20056;-80
2023/09/01 11:43:14;;;;;;;0.20;0.20;;;;;;;17.43;100.00;96264.75;4813632;29;20722;-81
2023/09/01 11:46:00;;;;;;;0.10;0.10;;;;;;;17.33;100.00;96273.00;4840162;29;20046;-80
2023/09/01 11:48:47;;;;;;;0.10;0.10;;;;;;;17.75;100.00;96273.94;4839214;29;20053;-80
2023/09/01 11:51:37;;;;;;;0.10;0.10;;;;;;;17.61;100.00;96273.88;4838728;29;20710;-80
2023/09/01 11:54:23;;;;;;;0.10;0.10;;;;;;;17.83;100.00;96267.06;4838094;29;20455;-80
2023/09/01 11:57:15;;;;;;;0.10;0.10;;;;;;;18.21;100.00;96262.22;4838154;29;20053;-80
2023/09/01 12:00:00;;;;;;;0.17;0.17;;;;;;;18.19;100.00;96272.56;4838871;29;20164;-80
2023/09/01 12:02:46;;;;;;;0.20;0.20;;;;;;;18.10;100.00;96265.16;4839767;29;20189;-81
2023/09/01 12:05:34;;;;;;;0.10;0.10;;;;;;;17.71;100.00;96262.09;4842248;29;20751;-81
2023/09/01 12:08:24;;;;;;;0.10;0.10;;;;;;;17.29;100.00;96282.81;4837909;29;20650;-81
2023/09/01 12:11:10;;;;;;;0.10;0.10;;;;;;;17.51;100.00;96279.50;4840524;29;20687;-81
2023/09/01 12:13:56;;;;;;;0.10;0.10;;;;;;;17.44;100.00;96287.97;4836473;29;20152;-80
2023/09/01 12:16:42;;;;;;;0.10;0.10;;;;;;;17.32;100.00;96284.13;4840917;29;20064;-81
2023/09/01 12:19:28;;;;;;;0.10;0.10;;;;;;;17.41;100.00;96285.03;4841891;29;20073;-80
2023/09/01 12:22:14;;;;;;;0.10;0.10;;;;;;;17.80;100.00;96284.66;4838372;29;20053;-81
2023/09/01 12:25:00;;;;;;;0.20;0.20;;;;;;;18.29;100.00;96280.50;4841798;29;20128;-81
2023/09/01 12:27:48;;;;;;;0.10;0.10;;;;;;;18.64;100.00;96274.31;4839982;29;20060;-81
2023/09/01 12:30:33;;;;;;;0.10;0.10;;;;;;;18.81;100.00;96272.91;4838543;29;20045;-81
2023/09/01 12:33:20;;;;;;;0.10;0.10;;;;;;;18.73;100.00;96273.63;4826975;29;20041;-81
2023/09/01 12:36:06;;;;;;;0.10;0.10;;;;;;;18.67;100.00;96274.84;4840658;29;20049;-81
2023/09/01 12:38:52;;;;;;;0.10;0.10;;;;;;;18.45;100.00;96289.13;4840387;29;20740;-81
2023/09/01 12:41:38;;;;;;;0.10;0.10;;;;;;;18.20;100.00;96291.22;4828284;29;20084;-82
2023/09/01 12:44:24;;;;;;;0.10;0.10;;;;;;;18.52;100.00;96293.03;4841113;29;20679;-81
2023/09/01 12:47:09;;;;;;;0.10;0.10;;;;;;;18.58;100.00;96297.22;4840946;29;20545;-81
2023/09/01 12:49:55;;;;;;;0.10;0.10;;;;;;;18.44;100.00;96296.41;4840453;29;20101;-81
2023/09/01 12:52:41;;;;;;;0.10;0.10;;;;;;;18.61;100.00;96307.47;4839115;29;21096;-81
2023/09/01 12:55:27;;;;;;;0.10;0.10;;;;;;;18.76;100.00;96302.84;4839569;29;20056;-81
2023/09/01 12:58:14;;;;;;;0.10;0.10;;;;;;;18.69;100.00;96299.75;4839593;29;21083;-81
2023/09/01 13:01:03;;;;;;;0.20;0.20;;;;;;;18.46;100.00;96299.66;4841837;29;20049;-81